sensor_id;sensor_type;location;lat;lon;timestamp;temperature;humidity
19224;DHT22;9746;47.180;9.776;2023-12-07T00:01:04;2.50;99.90
19224;DHT22;9746;47.180;9.776;2023-12-07T00:03:37;2.60;99.90
19224;DHT22;9746;47.180;9.776;2023-12-07T00:06:05;2.60;99.90
19224;DHT22;9746;47.180;9.776;2023-12-07T00:08:36;2.60;99.90
19224;DHT22;9746;47.180;9.776;2023-12-07T00:11:03;2.60;99.90
19224;DHT22;9746;47.180;9.776;2023-12-07T00:13:53;2.60;99.90
19224;DHT22;9746;47.180;9.776;2023-12-07T00:16:20;2.60;99.90
19224;DHT22;9746;47.180;9.776;2023-12-07T00:19:01;2.60;99.90
19224;DHT22;9746;47.180;9.776;2023-12-07T00:21:28;2.60;99.90
19224;DHT22;9746;47.180;9.776;2023-12-07T00:23:57;2.60;99.90
19224;DHT22;9746;47.180;9.776;2023-12-07T00:26:24;2.60;99.90
19224;DHT22;9746;47.180;9.776;2023-12-07T00:29:06;2.50;99.90
19224;DHT22;9746;47.180;9.776;2023-12-07T00:31:34;2.60;99.90
19224;DHT22;9746;47.180;9.776;2023-12-07T00:34:07;2.50;99.90
19224;DHT22;9746;47.180;9.776;2023-12-07T00:36:35;2.60;99.90
19224;DHT22;9746;47.180;9.776;2023-12-07T00:39:07;2.60;99.90
19224;DHT22;9746;47.180;9.776;2023-12-07T00:41:34;2.50;99.90
19224;DHT22;9746;47.180;9.776;2023-12-07T00:44:13;2.50;99.90
19224;DHT22;9746;47.180;9.776;2023-12-07T00:46:40;2.40;99.90
19224;DHT22;9746;47.180;9.776;2023-12-07T00:49:09;2.40;99.90
19224;DHT22;9746;47.180;9.776;2023-12-07T00:51:36;2.30;99.90
19224;DHT22;9746;47.180;9.776;2023-12-07T00:54:05;2.20;99.90
19224;DHT22;9746;47.180;9.776;2023-12-07T00:56:33;2.20;99.90
19224;DHT22;9746;47.180;9.776;2023-12-07T00:59:01;2.10;99.90
19224;DHT22;9746;47.180;9.776;2023-12-07T01:01:30;2.20;99.90
19224;DHT22;9746;47.180;9.776;2023-12-07T01:04:16;2.20;99.90
19224;DHT22;9746;47.180;9.776;2023-12-07T01:06:43;2.10;99.90
19224;DHT22;9746;47.180;9.776;2023-12-07T01:09:30;2.10;99.90
19224;DHT22;9746;47.180;9.776;2023-12-07T01:11:57;2.00;99.90
19224;DHT22;9746;47.180;9.776;2023-12-07T01:14:25;2.10;99.90
19224;DHT22;9746;47.180;9.776;2023-12-07T01:16:54;2.10;99.90
19224;DHT22;9746;47.180;9.776;2023-12-07T01:19:22;2.10;99.90
19224;DHT22;9746;47.180;9.776;2023-12-07T01:21:51;2.10;99.90
19224;DHT22;9746;47.180;9.776;2023-12-07T01:24:32;2.10;99.90
19224;DHT22;9746;47.180;9.776;2023-12-07T01:27:00;2.00;99.90
19224;DHT22;9746;47.180;9.776;2023-12-07T01:29:29;2.10;99.90
19224;DHT22;9746;47.180;9.776;2023-12-07T01:31:58;2.10;99.90
19224;DHT22;9746;47.180;9.776;2023-12-07T01:34:26;2.10;99.90
19224;DHT22;9746;47.180;9.776;2023-12-07T01:36:53;2.10;99.90
19224;DHT22;9746;47.180;9.776;2023-12-07T01:39:21;2.00;99.90
19224;DHT22;9746;47.180;9.776;2023-12-07T01:41:49;1.90;99.90
19224;DHT22;9746;47.180;9.776;2023-12-07T01:44:22;1.80;99.90
19224;DHT22;9746;47.180;9.776;2023-12-07T01:46:51;1.80;99.90
19224;DHT22;9746;47.180;9.776;2023-12-07T01:49:22;1.80;99.90
19224;DHT22;9746;47.180;9.776;2023-12-07T01:51:50;1.80;99.90
19224;DHT22;9746;47.180;9.776;2023-12-07T01:54:27;1.70;99.90
19224;DHT22;9746;47.180;9.776;2023-12-07T01:56:55;1.80;99.90
19224;DHT22;9746;47.180;9.776;2023-12-07T01:59:33;1.80;99.90
19224;DHT22;9746;47.180;9.776;2023-12-07T02:02:01;1.80;99.90
19224;DHT22;9746;47.180;9.776;2023-12-07T02:04:30;1.80;99.90
19224;DHT22;9746;47.180;9.776;2023-12-07T02:06:57;1.90;99.90
19224;DHT22;9746;47.180;9.776;2023-12-07T02:09:40;1.90;99.90
19224;DHT22;9746;47.180;9.776;2023-12-07T02:12:08;1.90;99.90
19224;DHT22;9746;47.180;9.776;2023-12-07T02:14:38;1.90;99.90
19224;DHT22;9746;47.180;9.776;2023-12-07T02:17:14;1.90;99.90
19224;DHT22;9746;47.180;9.776;2023-12-07T02:20:00;1.90;99.90
19224;DHT22;9746;47.180;9.776;2023-12-07T02:22:32;1.90;99.90
19224;DHT22;9746;47.180;9.776;2023-12-07T02:25:06;1.90;99.90
19224;DHT22;9746;47.180;9.776;2023-12-07T02:27:40;1.90;99.90
19224;DHT22;9746;47.180;9.776;2023-12-07T02:30:10;1.90;99.90
19224;DHT22;9746;47.180;9.776;2023-12-07T02:32:38;1.90;99.90
19224;DHT22;9746;47.180;9.776;2023-12-07T02:35:07;1.80;99.90
19224;DHT22;9746;47.180;9.776;2023-12-07T02:37:40;1.80;99.90
19224;DHT22;9746;47.180;9.776;2023-12-07T02:40:11;1.80;99.90
19224;DHT22;9746;47.180;9.776;2023-12-07T02:42:43;1.80;99.90
19224;DHT22;9746;47.180;9.776;2023-12-07T02:45:11;1.80;99.90
19224;DHT22;9746;47.180;9.776;2023-12-07T02:47:48;1.80;99.90
19224;DHT22;9746;47.180;9.776;2023-12-07T02:50:15;1.80;99.90
19224;DHT22;9746;47.180;9.776;2023-12-07T02:52:43;1.80;99.90
19224;DHT22;9746;47.180;9.776;2023-12-07T02:55:11;1.80;99.90
19224;DHT22;9746;47.180;9.776;2023-12-07T02:57:38;1.80;99.90
19224;DHT22;9746;47.180;9.776;2023-12-07T03:00:12;1.80;99.90
19224;DHT22;9746;47.180;9.776;2023-12-07T03:02:40;1.80;99.90
19224;DHT22;9746;47.180;9.776;2023-12-07T03:05:08;1.80;99.90
19224;DHT22;9746;47.180;9.776;2023-12-07T03:07:36;1.80;99.90
19224;DHT22;9746;47.180;9.776;2023-12-07T03:10:15;1.80;99.90
19224;DHT22;9746;47.180;9.776;2023-12-07T03:12:43;1.70;99.90
19224;DHT22;9746;47.180;9.776;2023-12-07T03:15:20;1.70;99.90
19224;DHT22;9746;47.180;9.776;2023-12-07T03:17:50;1.70;99.90
19224;DHT22;9746;47.180;9.776;2023-12-07T03:20:17;1.70;99.90
19224;DHT22;9746;47.180;9.776;2023-12-07T03:22:45;1.70;99.90
19224;DHT22;9746;47.180;9.776;2023-12-07T03:25:13;1.80;99.90
19224;DHT22;9746;47.180;9.776;2023-12-07T03:27:41;1.70;99.90
19224;DHT22;9746;47.180;9.776;2023-12-07T03:30:17;1.80;99.90
19224;DHT22;9746;47.180;9.776;2023-12-07T03:32:46;1.80;99.90
19224;DHT22;9746;47.180;9.776;2023-12-07T03:35:15;1.70;99.90
19224;DHT22;9746;47.180;9.776;2023-12-07T03:37:43;1.70;99.90
19224;DHT22;9746;47.180;9.776;2023-12-07T03:40:12;1.60;99.90
19224;DHT22;9746;47.180;9.776;2023-12-07T03:42:39;1.60;99.90
19224;DHT22;9746;47.180;9.776;2023-12-07T03:45:09;1.70;99.90
19224;DHT22;9746;47.180;9.776;2023-12-07T03:47:36;1.70;99.90
19224;DHT22;9746;47.180;9.776;2023-12-07T03:50:12;1.70;99.90
19224;DHT22;9746;47.180;9.776;2023-12-07T03:52:40;1.70;99.90
19224;DHT22;9746;47.180;9.776;2023-12-07T03:55:08;1.70;99.90
19224;DHT22;9746;47.180;9.776;2023-12-07T03:57:36;1.80;99.90
19224;DHT22;9746;47.180;9.776;2023-12-07T04:00:16;1.80;99.90
19224;DHT22;9746;47.180;9.776;2023-12-07T04:02:44;1.80;99.90
19224;DHT22;9746;47.180;9.776;2023-12-07T04:05:20;1.80;99.90
19224;DHT22;9746;47.180;9.776;2023-12-07T04:07:47;1.90;99.90
19224;DHT22;9746;47.180;9.776;2023-12-07T04:10:21;1.90;99.90
19224;DHT22;9746;47.180;9.776;2023-12-07T04:12:48;1.90;99.90
19224;DHT22;9746;47.180;9.776;2023-12-07T04:15:17;1.90;99.90
19224;DHT22;9746;47.180;9.776;2023-12-07T04:17:44;1.80;99.90
19224;DHT22;9746;47.180;9.776;2023-12-07T04:20:32;1.80;99.90
19224;DHT22;9746;47.180;9.776;2023-12-07T04:23:00;1.80;99.90
19224;DHT22;9746;47.180;9.776;2023-12-07T04:25:29;1.70;99.90
19224;DHT22;9746;47.180;9.776;2023-12-07T04:27:57;1.70;99.90
19224;DHT22;9746;47.180;9.776;2023-12-07T04:30:43;1.70;99.90
19224;DHT22;9746;47.180;9.776;2023-12-07T04:33:10;1.70;99.90
19224;DHT22;9746;47.180;9.776;2023-12-07T04:35:40;1.70;99.90
19224;DHT22;9746;47.180;9.776;2023-12-07T04:38:08;1.60;99.90
19224;DHT22;9746;47.180;9.776;2023-12-07T04:40:50;1.60;99.90
19224;DHT22;9746;47.180;9.776;2023-12-07T04:43:18;1.50;99.90
19224;DHT22;9746;47.180;9.776;2023-12-07T04:45:48;1.60;99.90
19224;DHT22;9746;47.180;9.776;2023-12-07T04:48:15;1.50;99.90
19224;DHT22;9746;47.180;9.776;2023-12-07T04:50:44;1.50;99.90
19224;DHT22;9746;47.180;9.776;2023-12-07T04:53:12;1.50;99.90
19224;DHT22;9746;47.180;9.776;2023-12-07T04:55:48;1.40;99.90
19224;DHT22;9746;47.180;9.776;2023-12-07T04:58:16;1.40;99.90
19224;DHT22;9746;47.180;9.776;2023-12-07T05:00:50;1.40;99.90
19224;DHT22;9746;47.180;9.776;2023-12-07T05:03:18;1.30;99.90
19224;DHT22;9746;47.180;9.776;2023-12-07T05:05:47;1.40;99.90
19224;DHT22;9746;47.180;9.776;2023-12-07T05:08:16;1.40;99.90
19224;DHT22;9746;47.180;9.776;2023-12-07T05:10:52;1.40;99.90
19224;DHT22;9746;47.180;9.776;2023-12-07T05:13:19;1.40;99.90
19224;DHT22;9746;47.180;9.776;2023-12-07T05:15:47;1.40;99.90
19224;DHT22;9746;47.180;9.776;2023-12-07T05:18:14;1.40;99.90
19224;DHT22;9746;47.180;9.776;2023-12-07T05:20:49;1.40;99.90
19224;DHT22;9746;47.180;9.776;2023-12-07T05:23:17;1.40;99.90
19224;DHT22;9746;47.180;9.776;2023-12-07T05:25:53;1.40;99.90
19224;DHT22;9746;47.180;9.776;2023-12-07T05:28:22;1.30;99.90
19224;DHT22;9746;47.180;9.776;2023-12-07T05:30:49;1.30;99.90
19224;DHT22;9746;47.180;9.776;2023-12-07T05:33:17;1.40;99.90
19224;DHT22;9746;47.180;9.776;2023-12-07T05:36:03;1.30;99.90
19224;DHT22;9746;47.180;9.776;2023-12-07T05:38:31;1.30;99.90
19224;DHT22;9746;47.180;9.776;2023-12-07T05:41:01;1.20;99.90
19224;DHT22;9746;47.180;9.776;2023-12-07T05:43:29;1.20;99.90
19224;DHT22;9746;47.180;9.776;2023-12-07T05:45:57;1.10;99.90
19224;DHT22;9746;47.180;9.776;2023-12-07T05:48:24;1.10;99.90
19224;DHT22;9746;47.180;9.776;2023-12-07T05:50:52;1.10;99.90
19224;DHT22;9746;47.180;9.776;2023-12-07T05:53:21;1.10;99.90
19224;DHT22;9746;47.180;9.776;2023-12-07T05:55:50;1.10;99.90
19224;DHT22;9746;47.180;9.776;2023-12-07T05:58:17;1.10;99.90
19224;DHT22;9746;47.180;9.776;2023-12-07T06:00:47;1.10;99.90
19224;DHT22;9746;47.180;9.776;2023-12-07T06:03:16;1.00;99.90
19224;DHT22;9746;47.180;9.776;2023-12-07T06:05:47;1.00;99.90
19224;DHT22;9746;47.180;9.776;2023-12-07T06:08:15;0.90;99.90
19224;DHT22;9746;47.180;9.776;2023-12-07T06:10:52;0.90;99.90
19224;DHT22;9746;47.180;9.776;2023-12-07T06:13:19;0.90;99.90
19224;DHT22;9746;47.180;9.776;2023-12-07T06:15:55;1.00;99.90
19224;DHT22;9746;47.180;9.776;2023-12-07T06:18:32;0.90;99.90
19224;DHT22;9746;47.180;9.776;2023-12-07T06:21:09;0.80;99.90
19224;DHT22;9746;47.180;9.776;2023-12-07T06:23:37;0.80;99.90
19224;DHT22;9746;47.180;9.776;2023-12-07T06:26:24;0.70;99.90
19224;DHT22;9746;47.180;9.776;2023-12-07T06:28:52;0.70;99.90
19224;DHT22;9746;47.180;9.776;2023-12-07T06:31:28;0.70;99.90
19224;DHT22;9746;47.180;9.776;2023-12-07T06:33:56;0.70;99.90
19224;DHT22;9746;47.180;9.776;2023-12-07T06:36:37;0.60;99.90
19224;DHT22;9746;47.180;9.776;2023-12-07T06:39:05;0.60;99.90
19224;DHT22;9746;47.180;9.776;2023-12-07T06:41:34;0.50;99.90
19224;DHT22;9746;47.180;9.776;2023-12-07T06:44:01;0.40;99.90
19224;DHT22;9746;47.180;9.776;2023-12-07T06:46:47;0.50;99.90
19224;DHT22;9746;47.180;9.776;2023-12-07T06:49:22;0.50;99.90
19224;DHT22;9746;47.180;9.776;2023-12-07T06:51:50;0.50;99.90
19224;DHT22;9746;47.180;9.776;2023-12-07T06:54:17;0.60;99.90
19224;DHT22;9746;47.180;9.776;2023-12-07T06:56:47;0.60;99.90
19224;DHT22;9746;47.180;9.776;2023-12-07T06:59:14;0.50;99.90
19224;DHT22;9746;47.180;9.776;2023-12-07T07:01:50;0.50;99.90
19224;DHT22;9746;47.180;9.776;2023-12-07T07:04:18;0.50;99.90
19224;DHT22;9746;47.180;9.776;2023-12-07T07:06:45;0.50;99.90
19224;DHT22;9746;47.180;9.776;2023-12-07T07:09:13;0.40;99.90
19224;DHT22;9746;47.180;9.776;2023-12-07T07:11:57;0.30;99.90
19224;DHT22;9746;47.180;9.776;2023-12-07T07:14:25;0.30;99.90
19224;DHT22;9746;47.180;9.776;2023-12-07T07:16:52;0.20;99.90
19224;DHT22;9746;47.180;9.776;2023-12-07T07:19:20;0.20;99.90
19224;DHT22;9746;47.180;9.776;2023-12-07T07:21:48;0.20;99.90
19224;DHT22;9746;47.180;9.776;2023-12-07T07:24:16;0.30;99.90
19224;DHT22;9746;47.180;9.776;2023-12-07T07:29:51;0.30;99.90
19224;DHT22;9746;47.180;9.776;2023-12-07T07:32:18;0.30;99.90
19224;DHT22;9746;47.180;9.776;2023-12-07T07:34:48;0.30;99.90
19224;DHT22;9746;47.180;9.776;2023-12-07T07:37:15;0.20;99.90
19224;DHT22;9746;47.180;9.776;2023-12-07T07:43:04;0.20;99.90
19224;DHT22;9746;47.180;9.776;2023-12-07T07:48:39;0.30;99.90
19224;DHT22;9746;47.180;9.776;2023-12-07T07:54:12;0.30;99.90
19224;DHT22;9746;47.180;9.776;2023-12-07T07:56:54;0.40;99.90
19224;DHT22;9746;47.180;9.776;2023-12-07T07:59:22;0.50;99.90
19224;DHT22;9746;47.180;9.776;2023-12-07T08:02:06;0.50;99.90
19224;DHT22;9746;47.180;9.776;2023-12-07T08:04:35;0.50;99.90
19224;DHT22;9746;47.180;9.776;2023-12-07T08:07:09;0.50;99.90
19224;DHT22;9746;47.180;9.776;2023-12-07T08:09:37;0.60;99.90
19224;DHT22;9746;47.180;9.776;2023-12-07T08:12:34;0.90;99.90
19224;DHT22;9746;47.180;9.776;2023-12-07T08:18:11;1.30;99.90
19224;DHT22;9746;47.180;9.776;2023-12-07T08:20:56;1.40;99.90
19224;DHT22;9746;47.180;9.776;2023-12-07T08:23:24;1.80;99.90
19224;DHT22;9746;47.180;9.776;2023-12-07T08:25:58;2.00;99.90
19224;DHT22;9746;47.180;9.776;2023-12-07T08:28:25;2.30;99.90
19224;DHT22;9746;47.180;9.776;2023-12-07T08:30:59;2.60;99.90
19224;DHT22;9746;47.180;9.776;2023-12-07T08:33:26;2.80;99.90
19224;DHT22;9746;47.180;9.776;2023-12-07T08:35:58;2.90;99.90
19224;DHT22;9746;47.180;9.776;2023-12-07T08:38:25;3.20;99.90
19224;DHT22;9746;47.180;9.776;2023-12-07T08:41:01;3.20;99.90
19224;DHT22;9746;47.180;9.776;2023-12-07T08:43:28;3.20;99.90
19224;DHT22;9746;47.180;9.776;2023-12-07T08:46:19;3.60;99.90
19224;DHT22;9746;47.180;9.776;2023-12-07T08:48:47;3.90;99.90
19224;DHT22;9746;47.180;9.776;2023-12-07T08:54:23;4.40;99.90
19224;DHT22;9746;47.180;9.776;2023-12-07T08:57:09;4.60;99.90
19224;DHT22;9746;47.180;9.776;2023-12-07T08:59:37;5.00;99.90
19224;DHT22;9746;47.180;9.776;2023-12-07T09:02:28;5.20;99.90
19224;DHT22;9746;47.180;9.776;2023-12-07T09:04:55;5.40;99.90
19224;DHT22;9746;47.180;9.776;2023-12-07T09:07:42;5.50;99.90
19224;DHT22;9746;47.180;9.776;2023-12-07T09:10:11;5.70;99.90
19224;DHT22;9746;47.180;9.776;2023-12-07T09:12:39;5.60;99.90
19224;DHT22;9746;47.180;9.776;2023-12-07T09:15:08;5.40;99.90
19224;DHT22;9746;47.180;9.776;2023-12-07T09:17:37;5.60;99.90
19224;DHT22;9746;47.180;9.776;2023-12-07T09:20:05;5.90;99.90
19224;DHT22;9746;47.180;9.776;2023-12-07T09:22:52;6.10;99.90
19224;DHT22;9746;47.180;9.776;2023-12-07T09:25:22;6.40;99.90
19224;DHT22;9746;47.180;9.776;2023-12-07T09:27:53;6.50;99.90
19224;DHT22;9746;47.180;9.776;2023-12-07T09:30:22;6.30;99.90
19224;DHT22;9746;47.180;9.776;2023-12-07T09:32:49;6.50;99.90
19224;DHT22;9746;47.180;9.776;2023-12-07T09:35:17;6.70;99.90
19224;DHT22;9746;47.180;9.776;2023-12-07T09:37:46;7.00;99.90
19224;DHT22;9746;47.180;9.776;2023-12-07T09:40:17;7.30;99.90
19224;DHT22;9746;47.180;9.776;2023-12-07T09:46:09;7.80;99.90
19224;DHT22;9746;47.180;9.776;2023-12-07T09:48:39;8.00;99.90
19224;DHT22;9746;47.180;9.776;2023-12-07T09:54:31;7.00;99.90
19224;DHT22;9746;47.180;9.776;2023-12-07T09:57:28;6.50;99.90
19224;DHT22;9746;47.180;9.776;2023-12-07T09:59:56;6.40;99.90
19224;DHT22;9746;47.180;9.776;2023-12-07T10:06:05;6.60;99.90
19224;DHT22;9746;47.180;9.776;2023-12-07T10:08:34;6.90;99.90
19224;DHT22;9746;47.180;9.776;2023-12-07T10:14:25;6.90;99.90
19224;DHT22;9746;47.180;9.776;2023-12-07T10:17:01;7.10;99.90
19224;DHT22;9746;47.180;9.776;2023-12-07T10:19:30;7.40;99.90
19224;DHT22;9746;47.180;9.776;2023-12-07T10:21:59;7.90;99.90
19224;DHT22;9746;47.180;9.776;2023-12-07T10:24:27;8.50;99.90
19224;DHT22;9746;47.180;9.776;2023-12-07T10:29:51;9.50;99.90
19224;DHT22;9746;47.180;9.776;2023-12-07T10:35:41;10.20;99.90
19224;DHT22;9746;47.180;9.776;2023-12-07T10:38:10;9.60;99.90
19224;DHT22;9746;47.180;9.776;2023-12-07T10:40:39;9.70;99.90
19224;DHT22;9746;47.180;9.776;2023-12-07T10:43:33;9.90;99.90
19224;DHT22;9746;47.180;9.776;2023-12-07T10:46:07;10.00;99.90
19224;DHT22;9746;47.180;9.776;2023-12-07T10:48:36;10.20;99.90
19224;DHT22;9746;47.180;9.776;2023-12-07T10:51:07;10.60;99.90
19224;DHT22;9746;47.180;9.776;2023-12-07T10:53:40;10.90;99.90
19224;DHT22;9746;47.180;9.776;2023-12-07T10:56:24;11.10;99.90
19224;DHT22;9746;47.180;9.776;2023-12-07T10:58:55;11.50;99.90
19224;DHT22;9746;47.180;9.776;2023-12-07T11:04:32;12.00;99.90
19224;DHT22;9746;47.180;9.776;2023-12-07T11:07:06;12.00;99.90
19224;DHT22;9746;47.180;9.776;2023-12-07T11:09:39;12.10;99.90
19224;DHT22;9746;47.180;9.776;2023-12-07T11:12:30;12.50;99.90
19224;DHT22;9746;47.180;9.776;2023-12-07T11:15:02;12.80;99.90
19224;DHT22;9746;47.180;9.776;2023-12-07T11:20:51;12.90;99.90
19224;DHT22;9746;47.180;9.776;2023-12-07T11:26:45;13.10;99.90
19224;DHT22;9746;47.180;9.776;2023-12-07T11:29:12;13.10;99.90
19224;DHT22;9746;47.180;9.776;2023-12-07T11:31:41;13.30;99.90
19224;DHT22;9746;47.180;9.776;2023-12-07T11:34:08;13.60;99.90
19224;DHT22;9746;47.180;9.776;2023-12-07T11:39:35;14.00;99.90
19224;DHT22;9746;47.180;9.776;2023-12-07T11:45:49;14.40;99.90
19224;DHT22;9746;47.180;9.776;2023-12-07T11:51:56;14.50;99.90
19224;DHT22;9746;47.180;9.776;2023-12-07T11:54:25;14.70;99.90
19224;DHT22;9746;47.180;9.776;2023-12-07T12:06:24;14.80;99.90
19224;DHT22;9746;47.180;9.776;2023-12-07T12:09:19;14.60;99.90
19224;DHT22;9746;47.180;9.776;2023-12-07T12:11:56;14.50;99.90
19224;DHT22;9746;47.180;9.776;2023-12-07T12:14:26;14.20;99.90
19224;DHT22;9746;47.180;9.776;2023-12-07T12:17:19;14.40;99.90
19224;DHT22;9746;47.180;9.776;2023-12-07T12:19:47;14.20;99.90
19224;DHT22;9746;47.180;9.776;2023-12-07T12:22:57;14.10;99.90
19224;DHT22;9746;47.180;9.776;2023-12-07T12:25:25;14.40;99.90
19224;DHT22;9746;47.180;9.776;2023-12-07T12:30:50;15.30;99.90
19224;DHT22;9746;47.180;9.776;2023-12-07T12:33:27;15.40;99.90
19224;DHT22;9746;47.180;9.776;2023-12-07T12:36:03;15.40;99.90
19224;DHT22;9746;47.180;9.776;2023-12-07T12:38:34;15.70;99.90
19224;DHT22;9746;47.180;9.776;2023-12-07T12:41:01;15.80;99.90
19224;DHT22;9746;47.180;9.776;2023-12-07T12:46:52;14.90;99.90
19224;DHT22;9746;47.180;9.776;2023-12-07T12:49:20;13.70;99.90
19224;DHT22;9746;47.180;9.776;2023-12-07T12:51:48;13.30;99.90
19224;DHT22;9746;47.180;9.776;2023-12-07T12:54:17;12.90;99.90
19224;DHT22;9746;47.180;9.776;2023-12-07T12:57:06;12.10;99.90
19224;DHT22;9746;47.180;9.776;2023-12-07T12:59:34;12.30;99.90
19224;DHT22;9746;47.180;9.776;2023-12-07T13:02:03;12.60;99.90
19224;DHT22;9746;47.180;9.776;2023-12-07T13:04:31;12.50;99.90
19224;DHT22;9746;47.180;9.776;2023-12-07T13:07:00;12.20;99.90
19224;DHT22;9746;47.180;9.776;2023-12-07T13:09:29;11.90;99.90
19224;DHT22;9746;47.180;9.776;2023-12-07T13:12:06;11.40;99.90
19224;DHT22;9746;47.180;9.776;2023-12-07T13:14:35;11.00;99.90
19224;DHT22;9746;47.180;9.776;2023-12-07T13:17:05;10.40;99.90
19224;DHT22;9746;47.180;9.776;2023-12-07T13:19:33;9.90;99.90
19224;DHT22;9746;47.180;9.776;2023-12-07T13:22:07;9.50;99.90
19224;DHT22;9746;47.180;9.776;2023-12-07T13:24:36;9.10;99.90
19224;DHT22;9746;47.180;9.776;2023-12-07T13:27:05;9.00;99.90
19224;DHT22;9746;47.180;9.776;2023-12-07T13:29:32;8.20;99.90
19224;DHT22;9746;47.180;9.776;2023-12-07T13:32:02;7.80;99.90
19224;DHT22;9746;47.180;9.776;2023-12-07T13:34:30;7.30;99.90
19224;DHT22;9746;47.180;9.776;2023-12-07T13:36:58;6.80;99.90
19224;DHT22;9746;47.180;9.776;2023-12-07T13:39:26;6.30;99.90
19224;DHT22;9746;47.180;9.776;2023-12-07T13:41:58;6.20;99.90
19224;DHT22;9746;47.180;9.776;2023-12-07T13:44:26;6.00;99.90
19224;DHT22;9746;47.180;9.776;2023-12-07T13:47:10;6.00;99.90
19224;DHT22;9746;47.180;9.776;2023-12-07T13:49:38;5.90;99.90
19224;DHT22;9746;47.180;9.776;2023-12-07T13:52:06;5.60;99.90
19224;DHT22;9746;47.180;9.776;2023-12-07T13:54:34;5.50;99.90
19224;DHT22;9746;47.180;9.776;2023-12-07T13:57:17;5.20;99.90
19224;DHT22;9746;47.180;9.776;2023-12-07T13:59:45;5.00;99.90
19224;DHT22;9746;47.180;9.776;2023-12-07T14:02:12;4.90;99.90
19224;DHT22;9746;47.180;9.776;2023-12-07T14:04:41;4.90;99.90
19224;DHT22;9746;47.180;9.776;2023-12-07T14:07:15;4.90;99.90
19224;DHT22;9746;47.180;9.776;2023-12-07T14:09:45;4.50;99.90
19224;DHT22;9746;47.180;9.776;2023-12-07T14:12:21;4.20;99.90
19224;DHT22;9746;47.180;9.776;2023-12-07T14:14:49;4.00;99.90
19224;DHT22;9746;47.180;9.776;2023-12-07T14:17:35;3.90;99.90
19224;DHT22;9746;47.180;9.776;2023-12-07T14:20:04;3.80;99.90
19224;DHT22;9746;47.180;9.776;2023-12-07T14:22:49;3.70;99.90
19224;DHT22;9746;47.180;9.776;2023-12-07T14:25:16;3.50;99.90
19224;DHT22;9746;47.180;9.776;2023-12-07T14:27:48;3.40;99.90
19224;DHT22;9746;47.180;9.776;2023-12-07T14:30:16;3.40;99.90
19224;DHT22;9746;47.180;9.776;2023-12-07T14:35:44;3.50;99.90
19224;DHT22;9746;47.180;9.776;2023-12-07T14:38:21;3.40;99.90
19224;DHT22;9746;47.180;9.776;2023-12-07T14:40:50;3.30;99.90
19224;DHT22;9746;47.180;9.776;2023-12-07T14:43:30;3.20;99.90
19224;DHT22;9746;47.180;9.776;2023-12-07T14:45:58;3.30;99.90
19224;DHT22;9746;47.180;9.776;2023-12-07T14:48:34;3.30;99.90
19224;DHT22;9746;47.180;9.776;2023-12-07T14:51:01;3.40;99.90
19224;DHT22;9746;47.180;9.776;2023-12-07T14:53:52;3.40;99.90
19224;DHT22;9746;47.180;9.776;2023-12-07T14:56:20;3.40;99.90
19224;DHT22;9746;47.180;9.776;2023-12-07T14:59:13;3.30;99.90
19224;DHT22;9746;47.180;9.776;2023-12-07T15:01:42;3.20;99.90
19224;DHT22;9746;47.180;9.776;2023-12-07T15:04:21;3.20;99.90
19224;DHT22;9746;47.180;9.776;2023-12-07T15:06:48;3.10;99.90
19224;DHT22;9746;47.180;9.776;2023-12-07T15:09:27;3.10;99.90
19224;DHT22;9746;47.180;9.776;2023-12-07T15:11:56;3.10;99.90
19224;DHT22;9746;47.180;9.776;2023-12-07T15:14:25;3.10;99.90
19224;DHT22;9746;47.180;9.776;2023-12-07T15:16:53;3.10;99.90
19224;DHT22;9746;47.180;9.776;2023-12-07T15:19:27;3.10;99.90
19224;DHT22;9746;47.180;9.776;2023-12-07T15:21:54;3.00;99.90
19224;DHT22;9746;47.180;9.776;2023-12-07T15:24:32;3.00;99.90
19224;DHT22;9746;47.180;9.776;2023-12-07T15:26:59;2.90;99.90
19224;DHT22;9746;47.180;9.776;2023-12-07T15:29:29;2.70;99.90
19224;DHT22;9746;47.180;9.776;2023-12-07T15:31:57;2.70;99.90
19224;DHT22;9746;47.180;9.776;2023-12-07T15:34:47;2.70;99.90
19224;DHT22;9746;47.180;9.776;2023-12-07T15:37:30;2.60;99.90
19224;DHT22;9746;47.180;9.776;2023-12-07T15:39:57;2.40;99.90
19224;DHT22;9746;47.180;9.776;2023-12-07T15:42:26;2.40;99.90
19224;DHT22;9746;47.180;9.776;2023-12-07T15:44:55;2.40;99.90
19224;DHT22;9746;47.180;9.776;2023-12-07T15:50:38;2.40;99.90
19224;DHT22;9746;47.180;9.776;2023-12-07T15:56:39;2.30;99.90
19224;DHT22;9746;47.180;9.776;2023-12-07T15:59:35;2.10;99.90
19224;DHT22;9746;47.180;9.776;2023-12-07T16:02:05;2.00;99.90
19224;DHT22;9746;47.180;9.776;2023-12-07T16:04:35;2.00;99.90
19224;DHT22;9746;47.180;9.776;2023-12-07T16:07:04;2.00;99.90
19224;DHT22;9746;47.180;9.776;2023-12-07T16:09:40;2.00;99.90
19224;DHT22;9746;47.180;9.776;2023-12-07T16:12:08;2.00;99.90
19224;DHT22;9746;47.180;9.776;2023-12-07T16:14:37;2.00;99.90
19224;DHT22;9746;47.180;9.776;2023-12-07T16:17:07;2.00;99.90
19224;DHT22;9746;47.180;9.776;2023-12-07T16:19:38;1.90;99.90
19224;DHT22;9746;47.180;9.776;2023-12-07T16:22:05;1.90;99.90
19224;DHT22;9746;47.180;9.776;2023-12-07T16:24:46;1.80;99.90
19224;DHT22;9746;47.180;9.776;2023-12-07T16:27:14;1.90;99.90
19224;DHT22;9746;47.180;9.776;2023-12-07T16:30:00;1.90;99.90
19224;DHT22;9746;47.180;9.776;2023-12-07T16:32:30;1.80;99.90
19224;DHT22;9746;47.180;9.776;2023-12-07T16:34:58;1.70;99.90
19224;DHT22;9746;47.180;9.776;2023-12-07T16:37:25;1.70;99.90
19224;DHT22;9746;47.180;9.776;2023-12-07T16:40:02;1.60;99.90
19224;DHT22;9746;47.180;9.776;2023-12-07T16:42:29;1.50;99.90
19224;DHT22;9746;47.180;9.776;2023-12-07T16:45:01;1.40;99.90
19224;DHT22;9746;47.180;9.776;2023-12-07T16:47:35;1.20;99.90
19224;DHT22;9746;47.180;9.776;2023-12-07T16:50:09;1.10;99.90
19224;DHT22;9746;47.180;9.776;2023-12-07T16:52:40;1.10;99.90
19224;DHT22;9746;47.180;9.776;2023-12-07T16:55:08;1.00;99.90
19224;DHT22;9746;47.180;9.776;2023-12-07T16:57:35;1.00;99.90
19224;DHT22;9746;47.180;9.776;2023-12-07T17:00:04;1.00;99.90
19224;DHT22;9746;47.180;9.776;2023-12-07T17:02:32;0.90;99.90
19224;DHT22;9746;47.180;9.776;2023-12-07T17:05:01;0.90;99.90
19224;DHT22;9746;47.180;9.776;2023-12-07T17:07:29;0.80;99.90
19224;DHT22;9746;47.180;9.776;2023-12-07T17:10:08;0.70;99.90
19224;DHT22;9746;47.180;9.776;2023-12-07T17:12:36;0.60;99.90
19224;DHT22;9746;47.180;9.776;2023-12-07T17:15:11;0.50;99.90
19224;DHT22;9746;47.180;9.776;2023-12-07T17:17:39;0.50;99.90
19224;DHT22;9746;47.180;9.776;2023-12-07T17:20:14;0.50;99.90
19224;DHT22;9746;47.180;9.776;2023-12-07T17:22:42;0.40;99.90
19224;DHT22;9746;47.180;9.776;2023-12-07T17:25:18;0.40;99.90
19224;DHT22;9746;47.180;9.776;2023-12-07T17:27:46;0.20;99.90
19224;DHT22;9746;47.180;9.776;2023-12-07T17:33:19;0.10;99.90
19224;DHT22;9746;47.180;9.776;2023-12-07T17:35:48;0.20;99.90
19224;DHT22;9746;47.180;9.776;2023-12-07T17:38:25;0.10;99.90
19224;DHT22;9746;47.180;9.776;2023-12-07T17:40:52;0.10;99.90
19224;DHT22;9746;47.180;9.776;2023-12-07T17:43:21;0.10;99.90
19224;DHT22;9746;47.180;9.776;2023-12-07T17:45:48;0.20;99.90
19224;DHT22;9746;47.180;9.776;2023-12-07T17:48:17;0.20;99.90
19224;DHT22;9746;47.180;9.776;2023-12-07T17:50:45;0.30;99.90
19224;DHT22;9746;47.180;9.776;2023-12-07T17:53:30;0.40;99.90
19224;DHT22;9746;47.180;9.776;2023-12-07T17:55:57;0.60;99.90